sensor_id;sensor_type;location;lat;lon;timestamp;temperature;humidity
17938;DHT22;16051;53.024;8.630;2022-10-16T00:01:23;14.00;99.90
17938;DHT22;16051;53.024;8.630;2022-10-16T00:05:27;13.90;99.90
17938;DHT22;16051;53.024;8.630;2022-10-16T00:09:31;13.90;99.90
17938;DHT22;16051;53.024;8.630;2022-10-16T00:13:34;13.90;99.90
17938;DHT22;16051;53.024;8.630;2022-10-16T00:17:38;13.80;99.90
17938;DHT22;16051;53.024;8.630;2022-10-16T00:21:40;13.80;99.90
17938;DHT22;16051;53.024;8.630;2022-10-16T00:25:44;13.80;99.90
17938;DHT22;16051;53.024;8.630;2022-10-16T00:29:58;13.70;99.90
17938;DHT22;16051;53.024;8.630;2022-10-16T00:34:03;13.70;99.90
17938;DHT22;16051;53.024;8.630;2022-10-16T00:38:05;13.60;99.90
17938;DHT22;16051;53.024;8.630;2022-10-16T00:42:15;13.60;99.90
17938;DHT22;16051;53.024;8.630;2022-10-16T00:46:21;13.50;99.90
17938;DHT22;16051;53.024;8.630;2022-10-16T00:50:28;13.50;99.90
17938;DHT22;16051;53.024;8.630;2022-10-16T00:54:33;13.40;99.90
17938;DHT22;16051;53.024;8.630;2022-10-16T00:58:37;13.30;99.90
17938;DHT22;16051;53.024;8.630;2022-10-16T01:02:39;13.30;99.90
17938;DHT22;16051;53.024;8.630;2022-10-16T01:06:47;13.30;99.90
17938;DHT22;16051;53.024;8.630;2022-10-16T01:10:59;13.30;99.90
17938;DHT22;16051;53.024;8.630;2022-10-16T01:15:17;13.20;99.90
17938;DHT22;16051;53.024;8.630;2022-10-16T01:19:37;13.20;99.90
17938;DHT22;16051;53.024;8.630;2022-10-16T01:23:56;13.10;99.90
17938;DHT22;16051;53.024;8.630;2022-10-16T01:28:10;13.00;99.90
17938;DHT22;16051;53.024;8.630;2022-10-16T01:32:17;12.90;99.90
17938;DHT22;16051;53.024;8.630;2022-10-16T01:36:26;12.90;99.90
17938;DHT22;16051;53.024;8.630;2022-10-16T01:40:37;12.90;99.90
17938;DHT22;16051;53.024;8.630;2022-10-16T01:44:45;12.90;99.90
17938;DHT22;16051;53.024;8.630;2022-10-16T01:48:50;12.80;99.90
17938;DHT22;16051;53.024;8.630;2022-10-16T01:52:56;12.80;99.90
17938;DHT22;16051;53.024;8.630;2022-10-16T01:57:01;12.80;99.90
17938;DHT22;16051;53.024;8.630;2022-10-16T02:01:09;12.70;99.90
17938;DHT22;16051;53.024;8.630;2022-10-16T02:05:32;12.70;99.90
17938;DHT22;16051;53.024;8.630;2022-10-16T02:09:39;12.70;99.90
17938;DHT22;16051;53.024;8.630;2022-10-16T02:13:45;12.60;99.90
17938;DHT22;16051;53.024;8.630;2022-10-16T02:17:51;12.60;99.90
17938;DHT22;16051;53.024;8.630;2022-10-16T02:21:56;12.50;99.90
17938;DHT22;16051;53.024;8.630;2022-10-16T02:26:03;12.60;99.90
17938;DHT22;16051;53.024;8.630;2022-10-16T02:30:14;12.60;99.90
17938;DHT22;16051;53.024;8.630;2022-10-16T02:34:45;12.50;99.90
17938;DHT22;16051;53.024;8.630;2022-10-16T02:38:49;12.50;99.90
17938;DHT22;16051;53.024;8.630;2022-10-16T02:42:53;12.50;99.90
17938;DHT22;16051;53.024;8.630;2022-10-16T02:46:57;12.50;99.90
17938;DHT22;16051;53.024;8.630;2022-10-16T02:51:00;12.50;99.90
17938;DHT22;16051;53.024;8.630;2022-10-16T02:55:03;12.40;99.90
17938;DHT22;16051;53.024;8.630;2022-10-16T02:59:05;12.40;99.90
17938;DHT22;16051;53.024;8.630;2022-10-16T03:03:25;12.40;99.90
17938;DHT22;16051;53.024;8.630;2022-10-16T03:07:29;12.40;99.90
17938;DHT22;16051;53.024;8.630;2022-10-16T03:11:31;12.40;99.90
17938;DHT22;16051;53.024;8.630;2022-10-16T03:15:33;12.40;99.90
17938;DHT22;16051;53.024;8.630;2022-10-16T03:19:35;12.40;99.90
17938;DHT22;16051;53.024;8.630;2022-10-16T03:23:39;12.40;99.90
17938;DHT22;16051;53.024;8.630;2022-10-16T03:27:41;12.40;99.90
17938;DHT22;16051;53.024;8.630;2022-10-16T03:31:43;12.40;99.90
17938;DHT22;16051;53.024;8.630;2022-10-16T03:35:51;12.30;99.90
17938;DHT22;16051;53.024;8.630;2022-10-16T03:39:58;12.40;99.90
17938;DHT22;16051;53.024;8.630;2022-10-16T03:44:01;12.40;99.90
17938;DHT22;16051;53.024;8.630;2022-10-16T03:48:03;12.30;99.90
17938;DHT22;16051;53.024;8.630;2022-10-16T03:52:19;12.30;99.90
17938;DHT22;16051;53.024;8.630;2022-10-16T03:56:22;12.30;99.90
17938;DHT22;16051;53.024;8.630;2022-10-16T04:00:24;12.30;99.90
17938;DHT22;16051;53.024;8.630;2022-10-16T04:04:26;12.30;99.90
17938;DHT22;16051;53.024;8.630;2022-10-16T04:08:28;12.20;99.90
17938;DHT22;16051;53.024;8.630;2022-10-16T04:12:32;12.20;99.90
17938;DHT22;16051;53.024;8.630;2022-10-16T04:16:52;12.20;99.90
17938;DHT22;16051;53.024;8.630;2022-10-16T04:20:54;12.20;99.90
17938;DHT22;16051;53.024;8.630;2022-10-16T04:24:56;12.30;99.90
17938;DHT22;16051;53.024;8.630;2022-10-16T04:29:00;12.20;99.90
17938;DHT22;16051;53.024;8.630;2022-10-16T04:33:02;12.20;99.90
17938;DHT22;16051;53.024;8.630;2022-10-16T04:37:04;12.30;99.90
17938;DHT22;16051;53.024;8.630;2022-10-16T04:41:07;12.30;99.90
17938;DHT22;16051;53.024;8.630;2022-10-16T04:45:11;12.30;99.90
17938;DHT22;16051;53.024;8.630;2022-10-16T04:49:13;12.30;99.90
17938;DHT22;16051;53.024;8.630;2022-10-16T04:53:15;12.30;99.90
17938;DHT22;16051;53.024;8.630;2022-10-16T04:57:18;12.20;99.90
17938;DHT22;16051;53.024;8.630;2022-10-16T05:01:21;12.30;99.90
17938;DHT22;16051;53.024;8.630;2022-10-16T05:05:23;12.30;99.90
17938;DHT22;16051;53.024;8.630;2022-10-16T05:09:26;12.30;99.90
17938;DHT22;16051;53.024;8.630;2022-10-16T05:13:28;12.30;99.90
17938;DHT22;16051;53.024;8.630;2022-10-16T05:17:31;12.30;99.90
17938;DHT22;16051;53.024;8.630;2022-10-16T05:21:33;12.30;99.90
17938;DHT22;16051;53.024;8.630;2022-10-16T05:25:36;12.30;99.90
17938;DHT22;16051;53.024;8.630;2022-10-16T05:29:44;12.40;99.90
17938;DHT22;16051;53.024;8.630;2022-10-16T05:33:48;12.40;99.90
17938;DHT22;16051;53.024;8.630;2022-10-16T05:37:50;12.40;99.90
17938;DHT22;16051;53.024;8.630;2022-10-16T05:41:54;12.50;99.90
17938;DHT22;16051;53.024;8.630;2022-10-16T05:45:57;12.50;99.90
17938;DHT22;16051;53.024;8.630;2022-10-16T05:50:16;12.50;99.90
17938;DHT22;16051;53.024;8.630;2022-10-16T05:54:18;12.50;99.90
17938;DHT22;16051;53.024;8.630;2022-10-16T05:58:20;12.50;99.90
17938;DHT22;16051;53.024;8.630;2022-10-16T06:02:23;12.50;99.90
17938;DHT22;16051;53.024;8.630;2022-10-16T06:06:27;12.50;99.90
17938;DHT22;16051;53.024;8.630;2022-10-16T06:10:30;12.50;99.90
17938;DHT22;16051;53.024;8.630;2022-10-16T06:14:32;12.50;99.90
17938;DHT22;16051;53.024;8.630;2022-10-16T06:18:35;12.60;99.90
17938;DHT22;16051;53.024;8.630;2022-10-16T06:22:39;12.60;99.90
17938;DHT22;16051;53.024;8.630;2022-10-16T06:26:41;12.60;99.90
17938;DHT22;16051;53.024;8.630;2022-10-16T06:30:43;12.60;99.90
17938;DHT22;16051;53.024;8.630;2022-10-16T06:34:46;12.60;99.90
17938;DHT22;16051;53.024;8.630;2022-10-16T06:38:55;12.70;99.90
17938;DHT22;16051;53.024;8.630;2022-10-16T06:42:58;12.70;99.90
17938;DHT22;16051;53.024;8.630;2022-10-16T06:47:00;12.70;99.90
17938;DHT22;16051;53.024;8.630;2022-10-16T06:51:28;12.70;99.90
17938;DHT22;16051;53.024;8.630;2022-10-16T06:55:33;12.80;99.90
17938;DHT22;16051;53.024;8.630;2022-10-16T06:59:36;12.80;99.90
17938;DHT22;16051;53.024;8.630;2022-10-16T07:03:38;12.80;99.90
17938;DHT22;16051;53.024;8.630;2022-10-16T07:12:22;13.00;99.90
17938;DHT22;16051;53.024;8.630;2022-10-16T07:16:27;13.10;99.90
17938;DHT22;16051;53.024;8.630;2022-10-16T07:20:30;13.30;99.90
17938;DHT22;16051;53.024;8.630;2022-10-16T07:24:32;13.40;99.90
17938;DHT22;16051;53.024;8.630;2022-10-16T07:28:43;13.50;99.90
17938;DHT22;16051;53.024;8.630;2022-10-16T07:32:45;13.60;99.90
17938;DHT22;16051;53.024;8.630;2022-10-16T07:36:48;13.60;99.90
17938;DHT22;16051;53.024;8.630;2022-10-16T07:40:56;13.70;99.90
17938;DHT22;16051;53.024;8.630;2022-10-16T07:45:01;13.80;99.90
17938;DHT22;16051;53.024;8.630;2022-10-16T07:49:03;13.70;99.90
17938;DHT22;16051;53.024;8.630;2022-10-16T07:53:05;13.70;99.90
17938;DHT22;16051;53.024;8.630;2022-10-16T07:57:07;13.70;99.90
17938;DHT22;16051;53.024;8.630;2022-10-16T08:01:45;13.90;99.90
17938;DHT22;16051;53.024;8.630;2022-10-16T08:05:47;14.00;99.90
17938;DHT22;16051;53.024;8.630;2022-10-16T08:09:59;14.00;99.90
17938;DHT22;16051;53.024;8.630;2022-10-16T08:14:01;14.00;99.90
17938;DHT22;16051;53.024;8.630;2022-10-16T08:18:05;14.10;99.90
17938;DHT22;16051;53.024;8.630;2022-10-16T08:22:25;14.10;99.90
17938;DHT22;16051;53.024;8.630;2022-10-16T08:26:27;14.10;99.90
17938;DHT22;16051;53.024;8.630;2022-10-16T08:30:45;14.20;99.90
17938;DHT22;16051;53.024;8.630;2022-10-16T08:34:48;14.30;99.90
17938;DHT22;16051;53.024;8.630;2022-10-16T08:38:51;14.40;99.90
17938;DHT22;16051;53.024;8.630;2022-10-16T08:43:25;14.30;99.90
17938;DHT22;16051;53.024;8.630;2022-10-16T08:47:54;14.40;99.90
17938;DHT22;16051;53.024;8.630;2022-10-16T08:52:16;14.40;99.90
17938;DHT22;16051;53.024;8.630;2022-10-16T08:56:18;14.50;99.90
17938;DHT22;16051;53.024;8.630;2022-10-16T09:00:21;14.60;99.90
17938;DHT22;16051;53.024;8.630;2022-10-16T09:09:16;14.70;99.90
17938;DHT22;16051;53.024;8.630;2022-10-16T09:13:35;14.80;99.90
17938;DHT22;16051;53.024;8.630;2022-10-16T09:17:53;15.00;99.90
17938;DHT22;16051;53.024;8.630;2022-10-16T09:22:12;15.30;99.90
17938;DHT22;16051;53.024;8.630;2022-10-16T09:26:30;15.60;99.90
17938;DHT22;16051;53.024;8.630;2022-10-16T09:30:32;15.90;99.90
17938;DHT22;16051;53.024;8.630;2022-10-16T09:34:50;16.10;99.90
17938;DHT22;16051;53.024;8.630;2022-10-16T09:39:04;16.30;99.90
17938;DHT22;16051;53.024;8.630;2022-10-16T09:43:20;16.60;99.90
17938;DHT22;16051;53.024;8.630;2022-10-16T09:47:32;16.80;99.90
17938;DHT22;16051;53.024;8.630;2022-10-16T09:51:41;16.90;99.90
17938;DHT22;16051;53.024;8.630;2022-10-16T09:55:50;17.30;99.90
17938;DHT22;16051;53.024;8.630;2022-10-16T09:59:56;17.70;99.90
17938;DHT22;16051;53.024;8.630;2022-10-16T10:03:59;18.20;99.90
17938;DHT22;16051;53.024;8.630;2022-10-16T10:08:06;18.50;99.90
17938;DHT22;16051;53.024;8.630;2022-10-16T10:12:18;18.90;99.90
17938;DHT22;16051;53.024;8.630;2022-10-16T10:16:25;19.50;99.90
17938;DHT22;16051;53.024;8.630;2022-10-16T10:20:29;19.90;99.90
17938;DHT22;16051;53.024;8.630;2022-10-16T10:24:33;20.80;99.90
17938;DHT22;16051;53.024;8.630;2022-10-16T10:28:52;21.00;99.90
17938;DHT22;16051;53.024;8.630;2022-10-16T10:33:12;21.60;99.90
17938;DHT22;16051;53.024;8.630;2022-10-16T10:37:37;22.00;99.90
17938;DHT22;16051;53.024;8.630;2022-10-16T10:42:16;22.90;99.90
17938;DHT22;16051;53.024;8.630;2022-10-16T10:46:32;22.00;99.90
17938;DHT22;16051;53.024;8.630;2022-10-16T10:50:55;21.50;99.90
17938;DHT22;16051;53.024;8.630;2022-10-16T10:55:10;21.90;99.90
17938;DHT22;16051;53.024;8.630;2022-10-16T10:59:37;22.60;99.90
17938;DHT22;16051;53.024;8.630;2022-10-16T11:04:29;23.20;99.90
17938;DHT22;16051;53.024;8.630;2022-10-16T11:08:44;23.70;99.90
17938;DHT22;16051;53.024;8.630;2022-10-16T11:12:54;23.90;99.90
17938;DHT22;16051;53.024;8.630;2022-10-16T11:17:10;23.80;99.90
17938;DHT22;16051;53.024;8.630;2022-10-16T11:21:18;23.90;99.90
17938;DHT22;16051;53.024;8.630;2022-10-16T11:25:27;24.10;99.90
17938;DHT22;16051;53.024;8.630;2022-10-16T11:29:31;23.90;99.90
17938;DHT22;16051;53.024;8.630;2022-10-16T11:33:43;24.10;99.90
17938;DHT22;16051;53.024;8.630;2022-10-16T11:37:50;24.20;99.90
17938;DHT22;16051;53.024;8.630;2022-10-16T11:42:01;23.60;99.90
17938;DHT22;16051;53.024;8.630;2022-10-16T11:46:12;23.60;99.90
17938;DHT22;16051;53.024;8.630;2022-10-16T11:50:43;23.90;99.90
17938;DHT22;16051;53.024;8.630;2022-10-16T11:54:50;23.40;99.90
17938;DHT22;16051;53.024;8.630;2022-10-16T11:59:01;23.30;99.90
17938;DHT22;16051;53.024;8.630;2022-10-16T12:03:12;23.60;99.90
17938;DHT22;16051;53.024;8.630;2022-10-16T12:07:24;23.20;99.90
17938;DHT22;16051;53.024;8.630;2022-10-16T12:11:38;23.30;99.90
17938;DHT22;16051;53.024;8.630;2022-10-16T12:15:43;22.90;99.90
17938;DHT22;16051;53.024;8.630;2022-10-16T12:20:18;22.80;99.90
17938;DHT22;16051;53.024;8.630;2022-10-16T12:24:38;22.30;99.90
17938;DHT22;16051;53.024;8.630;2022-10-16T12:28:49;22.60;99.90
17938;DHT22;16051;53.024;8.630;2022-10-16T12:33:00;23.20;99.90
17938;DHT22;16051;53.024;8.630;2022-10-16T12:37:14;23.00;99.90
17938;DHT22;16051;53.024;8.630;2022-10-16T12:41:26;22.80;99.90
17938;DHT22;16051;53.024;8.630;2022-10-16T12:45:44;22.50;99.90
17938;DHT22;16051;53.024;8.630;2022-10-16T12:49:51;23.10;99.80
17938;DHT22;16051;53.024;8.630;2022-10-16T12:54:00;24.10;98.20
17938;DHT22;16051;53.024;8.630;2022-10-16T12:58:12;24.00;96.70
17938;DHT22;16051;53.024;8.630;2022-10-16T13:02:47;27.60;92.20
17938;DHT22;16051;53.024;8.630;2022-10-16T13:07:09;27.90;90.90
17938;DHT22;16051;53.024;8.630;2022-10-16T13:11:27;25.70;91.40
17938;DHT22;16051;53.024;8.630;2022-10-16T13:16:07;24.80;92.90
17938;DHT22;16051;53.024;8.630;2022-10-16T13:20:35;24.20;94.00
17938;DHT22;16051;53.024;8.630;2022-10-16T13:24:54;23.20;94.40
17938;DHT22;16051;53.024;8.630;2022-10-16T13:29:05;25.10;93.80
17938;DHT22;16051;53.024;8.630;2022-10-16T13:33:16;28.10;87.50
17938;DHT22;16051;53.024;8.630;2022-10-16T13:37:23;27.30;87.90
17938;DHT22;16051;53.024;8.630;2022-10-16T13:41:27;29.30;80.10
17938;DHT22;16051;53.024;8.630;2022-10-16T13:45:37;30.20;75.80
17938;DHT22;16051;53.024;8.630;2022-10-16T13:49:39;30.30;72.20
17938;DHT22;16051;53.024;8.630;2022-10-16T13:53:42;30.50;68.60
17938;DHT22;16051;53.024;8.630;2022-10-16T13:57:46;31.10;65.30
17938;DHT22;16051;53.024;8.630;2022-10-16T14:01:51;31.40;63.20
17938;DHT22;16051;53.024;8.630;2022-10-16T14:06:17;30.70;61.90
17938;DHT22;16051;53.024;8.630;2022-10-16T14:10:25;30.00;63.90
17938;DHT22;16051;53.024;8.630;2022-10-16T14:14:35;27.50;68.40
17938;DHT22;16051;53.024;8.630;2022-10-16T14:18:46;26.10;73.10
17938;DHT22;16051;53.024;8.630;2022-10-16T14:23:03;25.10;75.80
17938;DHT22;16051;53.024;8.630;2022-10-16T14:27:29;24.70;78.00
17938;DHT22;16051;53.024;8.630;2022-10-16T14:31:34;24.50;78.50
17938;DHT22;16051;53.024;8.630;2022-10-16T14:35:39;24.20;79.40
17938;DHT22;16051;53.024;8.630;2022-10-16T14:39:51;24.00;81.00
17938;DHT22;16051;53.024;8.630;2022-10-16T14:43:55;23.70;81.40
17938;DHT22;16051;53.024;8.630;2022-10-16T14:48:02;23.50;82.80
17938;DHT22;16051;53.024;8.630;2022-10-16T14:52:14;23.40;83.90
17938;DHT22;16051;53.024;8.630;2022-10-16T14:56:47;23.30;84.90
17938;DHT22;16051;53.024;8.630;2022-10-16T15:00:53;23.20;86.40
17938;DHT22;16051;53.024;8.630;2022-10-16T15:05:12;23.00;87.20
17938;DHT22;16051;53.024;8.630;2022-10-16T15:09:32;22.90;88.10
17938;DHT22;16051;53.024;8.630;2022-10-16T15:13:34;22.90;89.40
17938;DHT22;16051;53.024;8.630;2022-10-16T15:17:39;22.80;89.00
17938;DHT22;16051;53.024;8.630;2022-10-16T15:21:54;22.80;89.00
17938;DHT22;16051;53.024;8.630;2022-10-16T15:25:57;22.70;89.40
17938;DHT22;16051;53.024;8.630;2022-10-16T15:30:01;22.70;89.30
17938;DHT22;16051;53.024;8.630;2022-10-16T15:34:03;23.10;88.60
17938;DHT22;16051;53.024;8.630;2022-10-16T15:38:10;23.20;88.00
17938;DHT22;16051;53.024;8.630;2022-10-16T15:42:16;23.00;88.20
17938;DHT22;16051;53.024;8.630;2022-10-16T15:46:37;22.50;89.40
17938;DHT22;16051;53.024;8.630;2022-10-16T15:50:41;21.90;90.70
17938;DHT22;16051;53.024;8.630;2022-10-16T15:54:45;21.50;91.40
17938;DHT22;16051;53.024;8.630;2022-10-16T15:58:49;21.20;92.20
17938;DHT22;16051;53.024;8.630;2022-10-16T16:02:52;21.00;92.90
17938;DHT22;16051;53.024;8.630;2022-10-16T16:06:56;20.80;93.80
17938;DHT22;16051;53.024;8.630;2022-10-16T16:11:02;20.60;94.60
17938;DHT22;16051;53.024;8.630;2022-10-16T16:15:07;20.30;95.40
17938;DHT22;16051;53.024;8.630;2022-10-16T16:19:14;20.10;96.20
17938;DHT22;16051;53.024;8.630;2022-10-16T16:23:26;19.90;97.20
17938;DHT22;16051;53.024;8.630;2022-10-16T16:27:29;19.60;98.00
17938;DHT22;16051;53.024;8.630;2022-10-16T16:31:49;19.40;98.80
17938;DHT22;16051;53.024;8.630;2022-10-16T16:35:58;19.20;99.80
17938;DHT22;16051;53.024;8.630;2022-10-16T16:40:01;19.00;99.90
17938;DHT22;16051;53.024;8.630;2022-10-16T16:44:06;18.80;99.90
17938;DHT22;16051;53.024;8.630;2022-10-16T16:48:13;18.60;99.90
17938;DHT22;16051;53.024;8.630;2022-10-16T16:52:15;18.40;99.90
17938;DHT22;16051;53.024;8.630;2022-10-16T16:56:19;18.30;99.90
17938;DHT22;16051;53.024;8.630;2022-10-16T17:00:25;18.10;99.90
17938;DHT22;16051;53.024;8.630;2022-10-16T17:04:58;17.90;99.90
17938;DHT22;16051;53.024;8.630;2022-10-16T17:09:02;17.70;99.90
17938;DHT22;16051;53.024;8.630;2022-10-16T17:13:05;17.70;99.90
17938;DHT22;16051;53.024;8.630;2022-10-16T17:17:09;17.50;99.90
17938;DHT22;16051;53.024;8.630;2022-10-16T17:21:11;17.30;99.90
17938;DHT22;16051;53.024;8.630;2022-10-16T17:25:14;17.20;99.90
17938;DHT22;16051;53.024;8.630;2022-10-16T17:29:17;17.00;99.90
17938;DHT22;16051;53.024;8.630;2022-10-16T17:33:21;16.90;99.90
17938;DHT22;16051;53.024;8.630;2022-10-16T17:37:35;16.80;99.90
17938;DHT22;16051;53.024;8.630;2022-10-16T17:41:49;16.70;99.90
17938;DHT22;16051;53.024;8.630;2022-10-16T17:45:54;16.60;99.90
17938;DHT22;16051;53.024;8.630;2022-10-16T17:49:58;16.40;99.90
17938;DHT22;16051;53.024;8.630;2022-10-16T17:54:01;16.30;99.90
17938;DHT22;16051;53.024;8.630;2022-10-16T17:58:06;16.20;99.90
17938;DHT22;16051;53.024;8.630;2022-10-16T18:02:08;16.10;99.90
17938;DHT22;16051;53.024;8.630;2022-10-16T18:06:14;16.00;99.90
17938;DHT22;16051;53.024;8.630;2022-10-16T18:10:16;15.90;99.90
17938;DHT22;16051;53.024;8.630;2022-10-16T18:14:52;15.90;99.90
17938;DHT22;16051;53.024;8.630;2022-10-16T18:19:04;15.80;99.90
17938;DHT22;16051;53.024;8.630;2022-10-16T18:23:08;15.60;99.90
17938;DHT22;16051;53.024;8.630;2022-10-16T18:27:13;15.60;99.90
17938;DHT22;16051;53.024;8.630;2022-10-16T18:31:17;15.50;99.90
17938;DHT22;16051;53.024;8.630;2022-10-16T18:35:45;15.40;99.90
17938;DHT22;16051;53.024;8.630;2022-10-16T18:39:49;15.30;99.90
17938;DHT22;16051;53.024;8.630;2022-10-16T18:43:52;15.20;99.90
17938;DHT22;16051;53.024;8.630;2022-10-16T18:47:55;15.20;99.90
17938;DHT22;16051;53.024;8.630;2022-10-16T18:52:06;15.20;99.90
17938;DHT22;16051;53.024;8.630;2022-10-16T18:56:10;15.10;99.90
17938;DHT22;16051;53.024;8.630;2022-10-16T19:00:17;15.10;99.90
17938;DHT22;16051;53.024;8.630;2022-10-16T19:04:19;15.00;99.90
17938;DHT22;16051;53.024;8.630;2022-10-16T19:08:23;15.00;99.90
17938;DHT22;16051;53.024;8.630;2022-10-16T19:12:32;14.90;99.90
17938;DHT22;16051;53.024;8.630;2022-10-16T19:16:35;14.90;99.90
17938;DHT22;16051;53.024;8.630;2022-10-16T19:20:40;14.90;99.90
17938;DHT22;16051;53.024;8.630;2022-10-16T19:24:47;14.80;99.90
17938;DHT22;16051;53.024;8.630;2022-10-16T19:28:53;14.70;99.90
17938;DHT22;16051;53.024;8.630;2022-10-16T19:32:57;14.70;99.90
17938;DHT22;16051;53.024;8.630;2022-10-16T19:37:01;14.70;99.90
17938;DHT22;16051;53.024;8.630;2022-10-16T19:41:19;14.60;99.90
17938;DHT22;16051;53.024;8.630;2022-10-16T19:45:22;14.60;99.90
17938;DHT22;16051;53.024;8.630;2022-10-16T19:49:26;14.60;99.90
17938;DHT22;16051;53.024;8.630;2022-10-16T19:53:28;14.50;99.90
17938;DHT22;16051;53.024;8.630;2022-10-16T19:57:32;14.50;99.90
17938;DHT22;16051;53.024;8.630;2022-10-16T20:01:36;14.40;99.90
17938;DHT22;16051;53.024;8.630;2022-10-16T20:05:39;14.40;99.90
17938;DHT22;16051;53.024;8.630;2022-10-16T20:09:41;14.30;99.90
17938;DHT22;16051;53.024;8.630;2022-10-16T20:13:43;14.30;99.90
17938;DHT22;16051;53.024;8.630;2022-10-16T20:17:47;14.30;99.90
17938;DHT22;16051;53.024;8.630;2022-10-16T20:21:49;14.30;99.90
17938;DHT22;16051;53.024;8.630;2022-10-16T20:25:52;14.30;99.90
17938;DHT22;16051;53.024;8.630;2022-10-16T20:29:55;14.30;99.90
17938;DHT22;16051;53.024;8.630;2022-10-16T20:34:02;14.30;99.90
17938;DHT22;16051;53.024;8.630;2022-10-16T20:38:05;14.30;99.90
17938;DHT22;16051;53.024;8.630;2022-10-16T20:42:08;14.30;99.90
17938;DHT22;16051;53.024;8.630;2022-10-16T20:46:12;14.20;99.90
17938;DHT22;16051;53.024;8.630;2022-10-16T20:50:17;14.10;99.90
17938;DHT22;16051;53.024;8.630;2022-10-16T20:54:20;14.10;99.90
17938;DHT22;16051;53.024;8.630;2022-10-16T20:58:22;14.10;99.90
17938;DHT22;16051;53.024;8.630;2022-10-16T21:02:24;14.00;99.90
17938;DHT22;16051;53.024;8.630;2022-10-16T21:06:29;14.00;99.90
17938;DHT22;16051;53.024;8.630;2022-10-16T21:10:33;14.00;99.90
17938;DHT22;16051;53.024;8.630;2022-10-16T21:14:35;14.00;99.90
17938;DHT22;16051;53.024;8.630;2022-10-16T21:18:48;14.00;99.90
17938;DHT22;16051;53.024;8.630;2022-10-16T21:22:51;13.90;99.90
17938;DHT22;16051;53.024;8.630;2022-10-16T21:26:53;14.00;99.90
17938;DHT22;16051;53.024;8.630;2022-10-16T21:30:56;14.00;99.90
17938;DHT22;16051;53.024;8.630;2022-10-16T21:34:58;14.00;99.90
17938;DHT22;16051;53.024;8.630;2022-10-16T21:39:03;13.90;99.90
17938;DHT22;16051;53.024;8.630;2022-10-16T21:43:06;14.00;99.90
17938;DHT22;16051;53.024;8.630;2022-10-16T21:47:10;14.00;99.90
17938;DHT22;16051;53.024;8.630;2022-10-16T21:51:12;13.90;99.90
17938;DHT22;16051;53.024;8.630;2022-10-16T21:55:16;13.90;99.90
17938;DHT22;16051;53.024;8.630;2022-10-16T21:59:19;14.00;99.90
17938;DHT22;16051;53.024;8.630;2022-10-16T22:03:21;14.00;99.90
17938;DHT22;16051;53.024;8.630;2022-10-16T22:07:23;13.90;99.90
17938;DHT22;16051;53.024;8.630;2022-10-16T22:11:29;13.90;99.90
17938;DHT22;16051;53.024;8.630;2022-10-16T22:15:36;13.90;99.90
17938;DHT22;16051;53.024;8.630;2022-10-16T22:19:38;13.90;99.90
17938;DHT22;16051;53.024;8.630;2022-10-16T22:23:40;13.90;99.90
17938;DHT22;16051;53.024;8.630;2022-10-16T22:27:44;13.90;99.90
17938;DHT22;16051;53.024;8.630;2022-10-16T22:31:50;13.90;99.90
17938;DHT22;16051;53.024;8.630;2022-10-16T22:35:52;13.90;99.90
17938;DHT22;16051;53.024;8.630;2022-10-16T22:39:54;13.90;99.90
17938;DHT22;16051;53.024;8.630;2022-10-16T22:43:58;13.90;99.90
17938;DHT22;16051;53.024;8.630;2022-10-16T22:48:00;13.90;99.90
17938;DHT22;16051;53.024;8.630;2022-10-16T22:52:02;13.90;99.90
17938;DHT22;16051;53.024;8.630;2022-10-16T22:56:05;13.90;99.90
17938;DHT22;16051;53.024;8.630;2022-10-16T23:00:12;13.90;99.90
17938;DHT22;16051;53.024;8.630;2022-10-16T23:04:18;13.90;99.90
17938;DHT22;16051;53.024;8.630;2022-10-16T23:08:20;13.90;99.90
17938;DHT22;16051;53.024;8.630;2022-10-16T23:12:28;13.80;99.90
17938;DHT22;16051;53.024;8.630;2022-10-16T23:16:31;13.80;99.90
17938;DHT22;16051;53.024;8.630;2022-10-16T23:20:33;13.80;99.90
17938;DHT22;16051;53.024;8.630;2022-10-16T23:24:53;13.80;99.90
17938;DHT22;16051;53.024;8.630;2022-10-16T23:28:56;13.80;99.90
17938;DHT22;16051;53.024;8.630;2022-10-16T23:33:00;13.90;99.90
17938;DHT22;16051;53.024;8.630;2022-10-16T23:37:02;13.90;99.90
17938;DHT22;16051;53.024;8.630;2022-10-16T23:41:06;13.80;99.90
17938;DHT22;16051;53.024;8.630;2022-10-16T23:45:08;13.80;99.90
17938;DHT22;16051;53.024;8.630;2022-10-16T23:49:12;13.80;99.90
17938;DHT22;16051;53.024;8.630;2022-10-16T23:53:14;13.80;99.90
17938;DHT22;16051;53.024;8.630;2022-10-16T23:57:16;13.80;99.90
